Terminal Aerodrome Forecast
Issued by NWS Nashville, TN

Home | Current Version | Previous Version | Text Only | Print | Product List | Glossary On
Versions: 1 2 3 4 5 6 7 8 9 10 11 12 13 14 15 16 17 18 19 20 21 22 23 24 25 26 27 28 29 30 31 32 33 34 35 36 37
000
FTUS44 KOHX 192300
TAFBNA
TAF
KBNA 192324Z 2000/2024 24007KT P6SM VCTS SCT040CB
     FM200600 19010G20KT P6SM VCTS BKN040CB
      TEMPO 2006/2008 1SM TSRA BKN020CB OVC040
     FM200800 19007KT 5SM -SHRA OVC020
     FM201000 20008KT 4SM BR OVC010
     FM201500 24016G22KT P6SM OVC015=

USA.gov is the U.S. government's official web portal to all federal, state and local government web resources and services.